Time;durP1;ratioP1;P1;durP2;ratioP2;P2;SDS_P1;SDS_P2;PMS_P1;PMS_P2;Temp;Humidity;BMP_temperature;BMP_pressure;BME280_temperature;BME280_humidity;BME280_pressure;Samples;Min_cycle;Max_cycle;Signal;HPM_P1;HPM_P2
2022/05/10 00:02:13;;;;;;;6.20;4.90;;;20.10;61.40;;;;;;5071811;28;20189;-72
2022/05/10 00:04:41;;;;;;;5.05;4.65;;;20.10;61.40;;;;;;5072101;28;20186;-72
2022/05/10 00:07:07;;;;;;;5.15;4.72;;;20.10;61.40;;;;;;5057334;28;20328;-72
2022/05/10 00:09:33;;;;;;;5.07;4.68;;;20.10;61.40;;;;;;5075234;28;20235;-72
2022/05/10 00:11:59;;;;;;;5.10;4.70;;;20.10;61.40;;;;;;5072699;28;20256;-72
2022/05/10 00:14:27;;;;;;;4.53;4.13;;;20.10;61.40;;;;;;5073697;28;20264;-72
2022/05/10 00:16:54;;;;;;;5.18;4.68;;;20.10;61.40;;;;;;5090547;28;20221;-72
2022/05/10 00:19:22;;;;;;;4.82;4.43;;;20.10;61.40;;;;;;5091152;28;20242;-72
2022/05/10 00:21:49;;;;;;;5.20;4.50;;;20.10;61.40;;;;;;5074693;28;20174;-72
2022/05/10 00:24:16;;;;;;;4.55;4.15;;;20.10;61.30;;;;;;5075449;28;20268;-72
2022/05/10 00:26:44;;;;;;;5.00;4.50;;;20.10;61.30;;;;;;5088992;28;20558;-72
2022/05/10 00:29:10;;;;;;;4.53;4.13;;;20.10;61.40;;;;;;5054657;28;20205;-73
2022/05/10 00:31:36;;;;;;;4.72;4.32;;;20.10;61.40;;;;;;5056039;28;20189;-72
2022/05/10 00:34:03;;;;;;;4.47;4.18;;;20.10;61.40;;;;;;5056068;28;20178;-72
2022/05/10 00:36:30;;;;;;;4.82;4.53;;;20.10;61.40;;;;;;5056438;28;20185;-72
2022/05/10 00:38:56;;;;;;;5.28;4.78;;;20.10;61.30;;;;;;5089913;28;20213;-72
2022/05/10 00:41:42;;;;;;;5.32;4.90;;;20.10;61.30;;;;;;5056343;28;20196;-72
2022/05/10 00:44:22;;;;;;;5.78;5.28;;;20.10;61.30;;;;;;5057171;28;20182;-72
2022/05/10 00:47:16;;;;;;;5.53;5.13;;;20.10;61.30;;;;;;5072835;28;20188;-72
2022/05/10 00:50:09;;;;;;;4.65;4.35;;;20.00;61.20;;;;;;5027892;28;20212;-72
2022/05/10 00:52:57;;;;;;;5.05;4.65;;;20.10;61.30;;;;;;5057572;28;20201;-72
2022/05/10 00:56:12;;;;;;;5.45;5.05;;;20.10;61.30;;;;;;5071557;28;20182;-72
2022/05/10 00:59:18;;;;;;;5.13;4.72;;;20.00;61.20;;;;;;5072989;28;20220;-72
2022/05/10 01:01:51;;;;;;;4.65;4.30;;;20.10;61.30;;;;;;5112650;28;20191;-73
2022/05/10 01:04:38;;;;;;;5.00;4.68;;;20.00;61.50;;;;;;5095362;28;20181;-72
2022/05/10 01:07:26;;;;;;;5.18;4.82;;;20.00;61.20;;;;;;5079466;28;20181;-72
2022/05/10 01:10:17;;;;;;;5.88;5.40;;;20.10;61.20;;;;;;5095776;28;20644;-73
2022/05/10 01:13:15;;;;;;;4.88;4.53;;;20.10;61.20;;;;;;5113055;28;20245;-72
2022/05/10 01:16:10;;;;;;;4.65;4.25;;;20.00;61.10;;;;;;5097330;28;20185;-72
2022/05/10 01:18:39;;;;;;;5.15;4.65;;;20.00;61.10;;;;;;5079082;28;20216;-72
2022/05/10 01:21:57;;;;;;;5.25;4.85;;;20.10;61.10;;;;;;5096055;28;20254;-72
2022/05/10 01:24:52;;;;;;;5.10;4.70;;;20.00;61.00;;;;;;5095932;28;20178;-73
2022/05/10 01:28:14;;;;;;;4.55;4.20;;;20.00;61.00;;;;;;5079096;28;20288;-73
2022/05/10 01:30:40;;;;;;;5.88;5.38;;;20.00;61.00;;;;;;5080784;28;20196;-73
2022/05/10 01:33:29;;;;;;;5.88;5.45;;;20.00;61.00;;;;;;5112353;28;20188;-73
2022/05/10 01:36:43;;;;;;;5.45;4.97;;;20.00;61.00;;;;;;5079057;28;20177;-73
2022/05/10 01:39:27;;;;;;;4.88;4.47;;;20.00;61.00;;;;;;5096209;28;20228;-73
2022/05/10 01:42:05;;;;;;;5.43;4.93;;;20.00;61.00;;;;;;5095250;28;20188;-73
2022/05/10 01:44:58;;;;;;;5.95;5.47;;;20.00;61.00;;;;;;5078542;28;20203;-73
2022/05/10 01:47:35;;;;;;;6.63;5.28;;;20.00;61.00;;;;;;5094415;28;20572;-73
2022/05/10 01:50:42;;;;;;;5.28;4.82;;;20.00;61.00;;;;;;5078433;28;20180;-72
2022/05/10 01:53:24;;;;;;;4.63;4.32;;;20.00;61.00;;;;;;5079733;28;20263;-72
2022/05/10 01:56:19;;;;;;;4.75;4.45;;;20.00;61.00;;;;;;5097280;28;20192;-73
2022/05/10 01:58:46;;;;;;;5.80;5.40;;;20.00;61.00;;;;;;5093990;28;20235;-73
2022/05/10 02:01:27;;;;;;;6.20;5.70;;;20.00;61.00;;;;;;5094897;28;20260;-73
2022/05/10 02:04:20;;;;;;;5.22;4.82;;;20.00;61.00;;;;;;5094610;28;20199;-72
2022/05/10 02:06:55;;;;;;;5.07;4.68;;;20.00;60.90;;;;;;5080387;28;20695;-72
2022/05/10 02:09:37;;;;;;;4.68;4.38;;;20.00;60.90;;;;;;5078828;28;20185;-73
2022/05/10 02:12:09;;;;;;;4.82;4.47;;;19.90;60.80;;;;;;5095262;28;20238;-73
2022/05/10 02:14:58;;;;;;;5.32;4.85;;;19.90;60.80;;;;;;5096070;28;20188;-73
2022/05/10 02:17:43;;;;;;;6.22;5.72;;;19.90;60.70;;;;;;5079925;28;20266;-73
2022/05/10 02:20:22;;;;;;;6.20;5.70;;;20.00;60.90;;;;;;5096784;28;20232;-73
2022/05/10 02:23:07;;;;;;;5.05;4.65;;;20.00;60.90;;;;;;5077724;28;20206;-72
2022/05/10 02:25:49;;;;;;;4.45;4.15;;;19.90;60.80;;;;;;5095669;28;20173;-72
2022/05/10 02:28:39;;;;;;;5.43;5.03;;;20.00;60.90;;;;;;5095565;28;20224;-73
2022/05/10 02:31:21;;;;;;;5.80;5.30;;;20.00;60.90;;;;;;5078572;28;20204;-73
2022/05/10 02:33:50;;;;;;;5.80;5.38;;;19.90;60.70;;;;;;5095759;28;20181;-73
2022/05/10 02:36:18;;;;;;;5.50;5.10;;;19.90;60.70;;;;;;5094859;28;20185;-73
2022/05/10 02:38:44;;;;;;;6.00;5.53;;;19.90;60.70;;;;;;5094820;28;20312;-73
2022/05/10 02:41:20;;;;;;;5.35;4.95;;;19.90;60.80;;;;;;5095040;28;20181;-73
2022/05/10 02:43:54;;;;;;;5.20;4.80;;;19.90;60.70;;;;;;5078196;28;20184;-73
2022/05/10 02:46:21;;;;;;;4.90;4.50;;;19.90;60.70;;;;;;5078150;28;20191;-73
2022/05/10 02:48:49;;;;;;;4.85;4.45;;;19.90;60.70;;;;;;5094325;28;20213;-72
2022/05/10 02:51:16;;;;;;;4.80;4.50;;;19.90;60.70;;;;;;5096703;28;20556;-72
2022/05/10 02:53:43;;;;;;;5.10;4.70;;;19.90;60.70;;;;;;5097180;28;20180;-72
2022/05/10 02:56:14;;;;;;;4.88;4.47;;;19.90;60.70;;;;;;5095078;28;20177;-72
2022/05/10 02:59:04;;;;;;;5.00;4.68;;;19.90;60.70;;;;;;5094703;28;20316;-72
2022/05/10 03:02:22;;;;;;;6.10;5.60;;;19.90;60.70;;;;;;5094901;28;20193;-72
2022/05/10 03:04:58;;;;;;;4.97;4.68;;;19.90;60.80;;;;;;5094043;28;20215;-72
2022/05/10 03:07:29;;;;;;;5.00;4.60;;;19.90;60.70;;;;;;5093889;28;20241;-72
2022/05/10 03:09:55;;;;;;;4.53;4.22;;;19.90;60.70;;;;;;5093257;28;20177;-72
2022/05/10 03:12:21;;;;;;;4.88;4.47;;;19.90;60.70;;;;;;5077459;28;20200;-72
2022/05/10 03:14:48;;;;;;;5.10;4.70;;;19.90;60.70;;;;;;5111652;28;20204;-73
2022/05/10 03:17:14;;;;;;;4.90;4.50;;;19.90;60.70;;;;;;5093758;28;20243;-73
2022/05/10 03:19:42;;;;;;;4.60;4.30;;;19.90;60.70;;;;;;5076788;28;20209;-72
2022/05/10 03:22:10;;;;;;;5.10;4.70;;;19.90;60.70;;;;;;5077570;28;20188;-72
2022/05/10 03:24:37;;;;;;;5.90;5.40;;;19.90;60.70;;;;;;5093798;28;20659;-72
2022/05/10 03:27:06;;;;;;;5.30;4.90;;;19.90;60.70;;;;;;5077308;28;20181;-72
2022/05/10 03:29:33;;;;;;;5.72;5.22;;;19.90;60.70;;;;;;5093787;28;20181;-72
2022/05/10 03:31:59;;;;;;;5.85;5.45;;;19.90;60.70;;;;;;5075885;28;20561;-73
2022/05/10 03:37:09;;;;;;;5.75;5.28;;;19.90;60.80;;;;;;5110247;28;20278;-73
2022/05/10 03:39:36;;;;;;;5.60;5.10;;;19.90;60.70;;;;;;5076179;28;20268;-72
2022/05/10 03:42:03;;;;;;;5.38;4.97;;;19.90;60.70;;;;;;5075228;28;20255;-73
2022/05/10 03:44:35;;;;;;;4.82;4.53;;;19.80;60.60;;;;;;5093005;28;20211;-73
2022/05/10 03:47:04;;;;;;;4.70;4.40;;;19.90;60.70;;;;;;5093071;28;20267;-73
2022/05/10 03:49:31;;;;;;;4.95;4.65;;;19.90;60.70;;;;;;5092403;28;20201;-72
2022/05/10 03:51:57;;;;;;;5.03;4.63;;;19.80;60.60;;;;;;5075582;28;20185;-73
2022/05/10 03:54:24;;;;;;;4.78;4.40;;;19.80;60.60;;;;;;5094156;28;20177;-73
2022/05/10 03:56:50;;;;;;;5.32;4.85;;;19.90;60.70;;;;;;5092842;28;20195;-73
2022/05/10 03:59:18;;;;;;;4.90;4.50;;;19.80;61.50;;;;;;5075985;28;20209;-72
2022/05/10 04:01:45;;;;;;;4.97;4.57;;;19.80;60.60;;;;;;5092986;28;20172;-73
2022/05/10 04:04:14;;;;;;;4.35;4.05;;;19.80;60.60;;;;;;5095396;28;20176;-73
2022/05/10 04:06:40;;;;;;;5.55;5.15;;;19.90;60.70;;;;;;5077958;28;20184;-73
2022/05/10 04:09:06;;;;;;;5.75;5.35;;;19.80;60.60;;;;;;5095453;28;20201;-73
2022/05/10 04:11:34;;;;;;;5.32;4.93;;;19.80;60.70;;;;;;5079287;28;20184;-73
2022/05/10 04:14:00;;;;;;;5.78;5.28;;;19.80;60.60;;;;;;5096109;28;20177;-73
2022/05/10 04:16:26;;;;;;;5.95;5.45;;;19.80;60.60;;;;;;5095527;28;20185;-72
2022/05/10 04:18:52;;;;;;;5.90;5.50;;;19.80;60.60;;;;;;5095040;28;20221;-73
2022/05/10 04:21:18;;;;;;;6.85;6.25;;;19.80;60.60;;;;;;5075908;28;20181;-73
2022/05/10 04:23:44;;;;;;;6.00;5.60;;;19.80;60.60;;;;;;5108685;28;20331;-73
2022/05/10 04:26:13;;;;;;;6.18;5.68;;;19.80;60.60;;;;;;5075001;28;20169;-73
2022/05/10 04:28:41;;;;;;;6.15;5.65;;;19.80;60.60;;;;;;5092498;28;20204;-73
2022/05/10 04:31:07;;;;;;;5.43;5.03;;;19.80;60.60;;;;;;5094359;28;20601;-73
2022/05/10 04:33:33;;;;;;;5.03;4.72;;;19.80;60.60;;;;;;5078664;28;20181;-73
2022/05/10 04:35:59;;;;;;;5.07;4.68;;;19.80;60.60;;;;;;5077481;28;20178;-73
2022/05/10 04:38:25;;;;;;;4.32;4.03;;;19.80;60.60;;;;;;5085973;28;20303;-72
2022/05/10 04:43:42;;;;;;;5.15;4.75;;;19.80;60.60;;;;;;5096012;28;20164;-73
2022/05/10 04:46:08;;;;;;;4.95;4.55;;;19.80;60.60;;;;;;5111705;28;20174;-74
2022/05/10 04:48:34;;;;;;;4.85;4.55;;;19.80;60.60;;;;;;5104718;22;20255;-71
2022/05/10 04:51:01;;;;;;;5.38;4.97;;;19.80;60.60;;;;;;5057107;28;20181;-71
2022/05/10 04:53:27;;;;;;;5.70;5.30;;;19.80;60.60;;;;;;5074688;28;20699;-71
2022/05/10 04:55:53;;;;;;;5.68;5.18;;;19.80;60.50;;;;;;5089618;28;20189;-71
2022/05/10 04:58:19;;;;;;;5.95;5.45;;;19.80;60.60;;;;;;5048112;28;20221;-70
2022/05/10 05:00:45;;;;;;;6.10;5.60;;;19.80;60.60;;;;;;5073968;28;20182;-71
2022/05/10 05:03:11;;;;;;;6.82;6.32;;;19.80;60.60;;;;;;5073938;28;20178;-72
2022/05/10 05:05:37;;;;;;;7.20;6.60;;;19.80;60.50;;;;;;5074194;28;20264;-71
2022/05/10 05:08:03;;;;;;;7.07;6.47;;;19.80;60.40;;;;;;5057044;28;20220;-70
2022/05/10 05:10:30;;;;;;;6.85;6.25;;;19.80;60.40;;;;;;5057510;28;20182;-70
2022/05/10 05:12:56;;;;;;;6.00;5.50;;;19.80;60.40;;;;;;5073796;28;20684;-71
2022/05/10 05:15:21;;;;;;;6.18;5.68;;;19.80;60.30;;;;;;5073373;28;20186;-70
2022/05/10 05:17:47;;;;;;;6.22;5.72;;;19.80;60.30;;;;;;5056419;28;20217;-71
2022/05/10 05:20:14;;;;;;;5.60;5.18;;;19.80;60.40;;;;;;5077766;28;20186;-70
2022/05/10 05:22:40;;;;;;;5.68;5.25;;;19.80;60.40;;;;;;5080540;28;20633;-71
2022/05/10 05:25:06;;;;;;;5.07;4.68;;;19.80;60.40;;;;;;5078557;28;20247;-71
2022/05/10 05:27:33;;;;;;;4.93;4.57;;;19.80;60.50;;;;;;5073289;28;20209;-71
2022/05/10 05:30:00;;;;;;;5.13;4.72;;;19.80;60.50;;;;;;5071349;28;20217;-71
2022/05/10 05:32:30;;;;;;;5.00;4.60;;;19.90;60.50;;;;;;5071795;28;20609;-71
2022/05/10 05:34:57;;;;;;;5.05;4.65;;;19.90;60.60;;;;;;5072421;28;20186;-71
2022/05/10 05:37:33;;;;;;;4.93;4.60;;;19.80;60.40;;;;;;5072671;28;20194;-71
2022/05/10 05:40:07;;;;;;;5.18;4.78;;;19.90;60.50;;;;;;5056040;28;20192;-71
2022/05/10 05:42:34;;;;;;;5.53;5.10;;;19.90;60.50;;;;;;5072140;28;20661;-71
2022/05/10 05:45:00;;;;;;;5.90;5.40;;;19.90;60.50;;;;;;5072871;28;20585;-71
2022/05/10 05:47:26;;;;;;;6.13;5.63;;;19.90;60.60;;;;;;5055700;28;20694;-71
2022/05/10 05:49:52;;;;;;;6.18;5.68;;;19.90;60.50;;;;;;5056002;28;20178;-71
2022/05/10 05:52:21;;;;;;;6.78;6.28;;;19.90;60.60;;;;;;5056034;28;20239;-71
2022/05/10 05:54:49;;;;;;;6.47;5.88;;;19.90;60.60;;;;;;5055736;28;20193;-71
2022/05/10 05:57:17;;;;;;;6.40;5.90;;;19.90;60.60;;;;;;5056220;28;20212;-71
2022/05/10 05:59:43;;;;;;;6.50;6.00;;;19.90;60.50;;;;;;5055563;28;20178;-71
2022/05/10 06:02:19;;;;;;;5.95;5.45;;;19.90;60.50;;;;;;5073648;28;20181;-71
2022/05/10 06:04:45;;;;;;;5.20;4.80;;;20.00;60.70;;;;;;5055804;28;20280;-71
2022/05/10 06:07:13;;;;;;;5.07;4.68;;;19.90;60.60;;;;;;5072285;28;20185;-71
2022/05/10 06:09:41;;;;;;;5.85;5.15;;;20.00;60.80;;;;;;5072135;28;20181;-71
2022/05/10 06:12:10;;;;;;;4.95;4.65;;;20.00;60.80;;;;;;5073399;28;20189;-71
2022/05/10 06:14:37;;;;;;;4.97;4.57;;;20.00;60.80;;;;;;5055676;28;20188;-71
2022/05/10 06:17:04;;;;;;;5.38;4.97;;;20.00;60.90;;;;;;5072242;28;20190;-71
2022/05/10 06:19:30;;;;;;;6.28;5.68;;;20.00;60.80;;;;;;5071769;28;20312;-71
2022/05/10 06:21:56;;;;;;;5.97;5.47;;;20.00;60.90;;;;;;5055211;28;20284;-71
2022/05/10 06:24:23;;;;;;;5.18;4.80;;;20.00;60.90;;;;;;5072149;28;20684;-71
2022/05/10 06:26:50;;;;;;;5.50;5.10;;;20.00;60.80;;;;;;5071940;28;20242;-71
2022/05/10 06:29:16;;;;;;;5.88;5.47;;;20.00;60.90;;;;;;5071716;28;20237;-72
2022/05/10 06:31:44;;;;;;;6.15;5.15;;;20.00;60.90;;;;;;5071742;28;20214;-71
2022/05/10 06:34:11;;;;;;;8.18;5.55;;;20.00;60.90;;;;;;5071728;28;20185;-71
2022/05/10 06:36:39;;;;;;;5.28;4.88;;;20.00;60.90;;;;;;5071727;28;20190;-71
2022/05/10 06:39:05;;;;;;;4.95;4.45;;;20.10;61.00;;;;;;5071352;28;20314;-71
2022/05/10 06:41:32;;;;;;;5.10;4.60;;;20.10;61.00;;;;;;5071698;28;20214;-71
2022/05/10 06:43:59;;;;;;;4.47;4.18;;;20.10;61.00;;;;;;5054983;28;20183;-71
2022/05/10 06:46:26;;;;;;;5.18;4.78;;;20.10;61.00;;;;;;5054680;28;20185;-71
2022/05/10 06:48:52;;;;;;;4.85;4.45;;;20.10;61.00;;;;;;5054181;28;20224;-71
2022/05/10 06:51:21;;;;;;;5.00;4.50;;;20.10;61.00;;;;;;5054774;28;20272;-71
2022/05/10 06:53:48;;;;;;;4.65;4.20;;;20.10;61.00;;;;;;5054078;28;20177;-71
2022/05/10 06:56:14;;;;;;;4.90;4.40;;;20.10;61.00;;;;;;5054610;28;20181;-71
2022/05/10 06:58:40;;;;;;;5.18;4.68;;;20.10;60.90;;;;;;5054277;28;20229;-71
2022/05/10 07:01:11;;;;;;;4.30;4.00;;;20.10;61.00;;;;;;5054522;28;20269;-71
2022/05/10 07:03:40;;;;;;;4.65;4.25;;;20.10;61.00;;;;;;5071163;28;20276;-72
2022/05/10 07:06:09;;;;;;;4.88;4.47;;;20.10;61.00;;;;;;5071293;28;20243;-71
2022/05/10 07:08:36;;;;;;;4.43;4.03;;;20.10;61.00;;;;;;5070860;28;20234;-71
2022/05/10 07:11:03;;;;;;;4.38;4.07;;;20.10;61.00;;;;;;5071219;28;20197;-71
2022/05/10 07:13:31;;;;;;;4.40;4.00;;;20.10;61.00;;;;;;5071056;28;20611;-71
2022/05/10 07:15:57;;;;;;;4.25;3.85;;;20.10;61.00;;;;;;5087687;28;20178;-71
2022/05/10 07:18:24;;;;;;;4.05;3.75;;;20.20;61.10;;;;;;5070744;28;20252;-71
2022/05/10 07:20:51;;;;;;;4.40;4.10;;;20.10;61.00;;;;;;5070991;28;20189;-71
2022/05/10 07:23:30;;;;;;;4.38;4.03;;;20.20;61.10;;;;;;5071805;28;20548;-71
2022/05/10 07:25:58;;;;;;;3.97;3.67;;;20.20;61.10;;;;;;5070860;28;20180;-71
2022/05/10 07:28:29;;;;;;;4.38;4.03;;;20.20;61.10;;;;;;5070663;28;20288;-71
2022/05/10 07:30:57;;;;;;;4.07;3.78;;;20.20;61.10;;;;;;5071257;28;20205;-71
2022/05/10 07:33:24;;;;;;;3.50;3.30;;;20.20;61.10;;;;;;5070733;28;20209;-71
2022/05/10 07:38:36;;;;;;;3.50;3.30;;;20.20;61.10;;;;;;5070463;28;20270;-71
2022/05/10 07:41:02;;;;;;;3.90;3.60;;;20.20;61.10;;;;;;5054317;28;20177;-71
2022/05/10 07:43:28;;;;;;;3.90;3.60;;;20.30;61.20;;;;;;5070677;28;20186;-71
2022/05/10 07:45:54;;;;;;;3.85;3.60;;;20.30;61.10;;;;;;5070671;28;20208;-71
2022/05/10 07:48:21;;;;;;;3.90;3.58;;;20.30;61.20;;;;;;5053555;28;20241;-71
2022/05/10 07:50:50;;;;;;;3.80;3.50;;;20.30;61.20;;;;;;5054012;28;20186;-71
2022/05/10 07:53:15;;;;;;;3.67;3.45;;;20.30;61.20;;;;;;5072237;28;20181;-72
2022/05/10 07:55:41;;;;;;;3.65;3.38;;;20.30;61.20;;;;;;5071801;28;20176;-72
2022/05/10 07:58:08;;;;;;;3.53;3.20;;;20.30;61.20;;;;;;5053610;28;20217;-71
2022/05/10 08:00:38;;;;;;;3.70;3.33;;;20.40;61.30;;;;;;5053811;28;20204;-71
2022/05/10 08:03:14;;;;;;;3.97;3.67;;;20.40;61.30;;;;;;5070534;28;20232;-72
2022/05/10 08:05:41;;;;;;;3.55;3.25;;;20.40;61.30;;;;;;5054670;28;20182;-71
2022/05/10 08:08:07;;;;;;;3.58;3.33;;;20.40;61.30;;;;;;5058030;28;20245;-71
2022/05/10 08:10:34;;;;;;;4.00;3.70;;;20.40;61.30;;;;;;5057946;28;20188;-72
2022/05/10 08:13:00;;;;;;;3.97;3.67;;;20.40;61.30;;;;;;5057783;28;20185;-71
2022/05/10 08:15:26;;;;;;;4.35;3.95;;;20.40;61.30;;;;;;5057773;28;20181;-71
2022/05/10 08:17:52;;;;;;;4.00;3.50;;;20.40;61.30;;;;;;5075539;28;20615;-71
2022/05/10 08:20:19;;;;;;;3.83;3.38;;;20.40;61.30;;;;;;5057404;28;20192;-71
2022/05/10 08:22:45;;;;;;;3.63;3.33;;;20.40;61.30;;;;;;5057724;28;20181;-73
2022/05/10 08:25:13;;;;;;;3.83;3.53;;;20.40;61.30;;;;;;5057701;28;20246;-71
2022/05/10 08:27:38;;;;;;;3.75;3.40;;;20.40;61.30;;;;;;5074321;28;20231;-71
2022/05/10 08:30:06;;;;;;;4.00;3.70;;;20.40;61.30;;;;;;5057322;28;20194;-71
2022/05/10 08:32:32;;;;;;;3.90;3.60;;;20.40;61.30;;;;;;5074107;28;20193;-71
2022/05/10 08:34:58;;;;;;;3.80;3.50;;;20.40;61.30;;;;;;5057419;28;20193;-72
2022/05/10 08:37:24;;;;;;;3.78;3.58;;;20.40;61.30;;;;;;5057403;28;20250;-73
2022/05/10 08:39:49;;;;;;;3.67;3.38;;;20.40;61.30;;;;;;5073860;28;20181;-71
2022/05/10 08:42:25;;;;;;;3.88;3.60;;;20.40;61.20;;;;;;5057344;28;20185;-71
2022/05/10 08:45:01;;;;;;;3.55;3.25;;;20.40;61.30;;;;;;5057839;28;20182;-72
2022/05/10 08:47:28;;;;;;;4.00;3.70;;;20.40;61.30;;;;;;5073297;28;20185;-71
2022/05/10 08:50:00;;;;;;;3.60;3.33;;;20.50;61.40;;;;;;5073719;28;20189;-71
2022/05/10 08:52:40;;;;;;;3.92;3.63;;;20.50;61.40;;;;;;5057257;28;20239;-71
2022/05/10 08:55:09;;;;;;;3.65;3.35;;;20.50;61.40;;;;;;5073671;28;20185;-71
2022/05/10 08:58:05;;;;;;;3.33;3.03;;;20.50;61.30;;;;;;5073620;28;20299;-71
2022/05/10 09:00:52;;;;;;;4.20;3.80;;;20.50;61.40;;;;;;5056884;28;20213;-71
2022/05/10 09:03:34;;;;;;;3.63;3.33;;;20.50;61.40;;;;;;5073481;28;20182;-72
2022/05/10 09:06:10;;;;;;;3.83;3.53;;;20.50;61.40;;;;;;5073440;28;20215;-71
2022/05/10 09:09:18;;;;;;;3.42;3.13;;;20.50;61.40;;;;;;5073249;28;20205;-72
2022/05/10 09:11:57;;;;;;;3.40;3.20;;;20.50;61.40;;;;;;5073286;28;20190;-72
2022/05/10 09:14:32;;;;;;;3.92;3.63;;;20.50;61.60;;;;;;5057022;28;20181;-71
2022/05/10 09:17:00;;;;;;;3.65;3.40;;;20.50;61.50;;;;;;5056385;28;20192;-72
2022/05/10 09:19:38;;;;;;;3.88;3.40;;;20.50;61.40;;;;;;5056874;28;20225;-72
2022/05/10 09:22:18;;;;;;;3.72;3.42;;;20.50;61.60;;;;;;5073795;28;20227;-71
2022/05/10 09:24:53;;;;;;;5.95;5.45;;;20.50;61.80;;;;;;5056976;28;20683;-71
2022/05/10 09:27:25;;;;;;;21.13;9.95;;;20.50;62.10;;;;;;5056979;28;20178;-71
2022/05/10 09:29:52;;;;;;;28.80;13.95;;;20.50;62.00;;;;;;5056535;28;20186;-71
2022/05/10 09:35:24;;;;;;;17.90;10.57;;;20.50;62.20;;;;;;5073681;28;20236;-72
2022/05/10 09:38:08;;;;;;;20.02;10.82;;;20.50;62.30;;;;;;5056322;28;20221;-72
2022/05/10 09:40:47;;;;;;;15.43;9.00;;;20.50;62.40;;;;;;5074258;28;20197;-71
2022/05/10 09:43:25;;;;;;;14.82;9.65;;;20.50;62.40;;;;;;5056634;28;20181;-72
2022/05/10 09:46:09;;;;;;;15.25;9.48;;;20.50;62.40;;;;;;5073316;28;20235;-71
2022/05/10 09:48:36;;;;;;;13.95;9.20;;;20.50;62.40;;;;;;5056323;28;20221;-71
2022/05/10 09:51:39;;;;;;;16.35;7.88;;;20.50;62.20;;;;;;5073376;28;20174;-71
2022/05/10 09:54:20;;;;;;;18.98;10.13;;;20.50;63.00;;;;;;5073234;28;20193;-71
2022/05/10 09:56:53;;;;;;;19.38;10.18;;;20.50;62.40;;;;;;5073212;28;20197;-71
2022/05/10 09:59:18;;;;;;;16.52;9.75;;;20.50;62.50;;;;;;5056185;28;20217;-71
2022/05/10 10:01:54;;;;;;;17.60;9.43;;;20.60;62.50;;;;;;5056540;28;20269;-72
2022/05/10 10:04:35;;;;;;;17.10;9.27;;;20.50;62.50;;;;;;5075845;28;20188;-71
2022/05/10 10:07:24;;;;;;;19.60;11.32;;;20.60;62.60;;;;;;5074132;28;20174;-71
2022/05/10 10:09:56;;;;;;;20.20;10.25;;;20.60;62.40;;;;;;5055965;28;20213;-71
2022/05/10 10:12:39;;;;;;;17.95;10.02;;;20.60;62.30;;;;;;5057418;28;20225;-71
2022/05/10 10:15:22;;;;;;;16.00;9.18;;;20.50;62.20;;;;;;5056250;28;20269;-71
2022/05/10 10:18:01;;;;;;;15.73;8.93;;;20.60;62.30;;;;;;5072846;28;20213;-71
2022/05/10 10:20:56;;;;;;;17.17;8.90;;;20.60;62.50;;;;;;5056042;28;20224;-71
2022/05/10 10:23:53;;;;;;;18.52;9.93;;;20.60;62.40;;;;;;5056240;28;20201;-71
2022/05/10 10:26:42;;;;;;;13.90;8.70;;;20.60;62.30;;;;;;5059136;28;20194;-71
2022/05/10 10:29:29;;;;;;;16.85;9.10;;;20.60;62.50;;;;;;5072035;28;20210;-70
2022/05/10 10:32:04;;;;;;;19.40;10.60;;;20.60;62.40;;;;;;5072863;28;20174;-71
2022/05/10 10:34:51;;;;;;;17.92;10.15;;;20.60;62.40;;;;;;5055927;28;20177;-70
2022/05/10 10:37:41;;;;;;;15.10;8.65;;;20.60;62.60;;;;;;5072721;28;20197;-70
2022/05/10 10:40:39;;;;;;;15.77;9.45;;;20.60;62.50;;;;;;5072011;28;20224;-70
2022/05/10 10:43:23;;;;;;;14.38;8.73;;;20.60;62.40;;;;;;5092449;28;20185;-70
2022/05/10 10:46:02;;;;;;;17.40;9.85;;;20.60;62.40;;;;;;5092313;28;20185;-71
2022/05/10 10:48:36;;;;;;;17.25;8.82;;;20.60;62.40;;;;;;5112585;22;20682;-73
2022/05/10 10:51:02;;;;;;;16.98;9.27;;;20.60;62.20;;;;;;5071031;28;20179;-73
2022/05/10 10:53:29;;;;;;;14.73;9.23;;;20.60;62.30;;;;;;5065799;28;20182;-74
2022/05/10 10:56:11;;;;;;;14.00;8.13;;;20.60;62.20;;;;;;5073697;28;20209;-74
2022/05/10 10:59:03;;;;;;;14.77;8.18;;;20.60;62.30;;;;;;5073575;28;20348;-73
2022/05/10 11:02:21;;;;;;;16.15;9.25;;;20.60;62.20;;;;;;5044404;28;20194;-74
2022/05/10 11:05:18;;;;;;;15.70;9.18;;;20.60;62.40;;;;;;5053358;28;20182;-74
2022/05/10 11:08:17;;;;;;;12.18;8.30;;;20.60;62.50;;;;;;5053873;28;20183;-74
2022/05/10 11:11:14;;;;;;;12.30;9.00;;;20.60;63.10;;;;;;5035604;28;20214;-75
2022/05/10 11:14:13;;;;;;;12.73;8.82;;;20.60;62.30;;;;;;5036643;28;20182;-74
2022/05/10 11:17:02;;;;;;;13.50;8.32;;;20.60;62.40;;;;;;5047631;28;20222;-74
2022/05/10 11:20:15;;;;;;;13.52;7.88;;;20.60;62.30;;;;;;5070134;28;20214;-74
2022/05/10 11:23:06;;;;;;;14.60;8.48;;;20.60;62.20;;;;;;5083259;28;20217;-74
2022/05/10 11:25:47;;;;;;;15.38;8.52;;;20.60;62.30;;;;;;5057329;28;20597;-75
2022/05/10 11:28:39;;;;;;;11.18;7.75;;;20.60;62.20;;;;;;5056636;28;20305;-74
2022/05/10 11:31:40;;;;;;;11.48;7.90;;;20.60;62.20;;;;;;5039780;28;20238;-74
2022/05/10 11:34:44;;;;;;;10.48;7.63;;;20.60;62.10;;;;;;5039581;28;20191;-74
2022/05/10 11:37:20;;;;;;;13.68;8.35;;;20.60;62.10;;;;;;5054897;28;20208;-74
2022/05/10 11:40:06;;;;;;;13.10;8.23;;;20.60;62.10;;;;;;5040145;28;20238;-74
2022/05/10 11:43:13;;;;;;;10.38;7.47;;;20.60;62.10;;;;;;5041258;28;20207;-74
2022/05/10 11:46:01;;;;;;;12.60;7.97;;;20.60;62.10;;;;;;5057941;28;20194;-74
2022/05/10 11:48:52;;;;;;;11.10;7.88;;;20.60;62.00;;;;;;5041877;28;20218;-74
2022/05/10 11:51:47;;;;;;;12.38;7.82;;;20.60;62.10;;;;;;5054410;28;20198;-74
2022/05/10 11:54:49;;;;;;;13.23;8.07;;;20.60;62.10;;;;;;5042600;28;20186;-74
2022/05/10 11:57:19;;;;;;;10.30;7.05;;;20.60;62.00;;;;;;5040526;28;20209;-74
2022/05/10 11:59:46;;;;;;;11.10;7.50;;;20.60;62.00;;;;;;5038987;28;20241;-74
2022/05/10 12:02:30;;;;;;;9.75;7.55;;;20.60;62.00;;;;;;5040315;28;20182;-74
2022/05/10 12:05:12;;;;;;;10.70;7.53;;;20.60;62.00;;;;;;5041311;28;20231;-74
2022/05/10 12:07:49;;;;;;;10.55;7.15;;;20.60;62.10;;;;;;5064856;28;20268;-74
2022/05/10 12:10:37;;;;;;;10.82;7.13;;;20.60;62.10;;;;;;5055704;28;20182;-73
2022/05/10 12:22:46;;;;;;;7.70;6.57;;;20.60;62.10;;;;;;5054187;28;20186;-74
2022/05/10 12:25:59;;;;;;;10.48;6.88;;;20.60;62.10;;;;;;5059144;28;20182;-74
2022/05/10 12:28:36;;;;;;;10.40;6.82;;;20.60;62.00;;;;;;5060651;28;20399;-73
2022/05/10 12:31:30;;;;;;;9.77;7.05;;;20.60;62.00;;;;;;5072407;28;20178;-73
2022/05/10 12:34:09;;;;;;;11.77;7.28;;;20.60;62.10;;;;;;5071303;28;20274;-73
2022/05/10 12:36:43;;;;;;;9.07;6.68;;;20.60;61.90;;;;;;5055490;28;20175;-73
2022/05/10 12:39:30;;;;;;;7.45;6.53;;;20.60;62.00;;;;;;5071114;28;20209;-73
2022/05/10 12:42:13;;;;;;;9.70;6.85;;;20.60;61.80;;;;;;5059547;28;20217;-73
2022/05/10 12:44:55;;;;;;;10.65;6.97;;;20.60;61.90;;;;;;5076412;28;20257;-73
2022/05/10 12:47:56;;;;;;;9.40;6.70;;;20.60;61.90;;;;;;5059346;28;20200;-73
2022/05/10 12:50:37;;;;;;;9.80;6.82;;;20.70;62.00;;;;;;5059651;28;20239;-73
2022/05/10 12:53:22;;;;;;;7.82;5.93;;;20.60;61.50;;;;;;5095870;28;20184;-73
2022/05/10 12:55:51;;;;;;;7.90;6.65;;;20.60;62.30;;;;;;5078254;28;20174;-73
2022/05/10 12:58:28;;;;;;;9.50;6.85;;;20.70;61.80;;;;;;5094683;28;20225;-73
2022/05/10 13:00:59;;;;;;;6.35;5.65;;;20.70;61.80;;;;;;5061203;28;20173;-73
2022/05/10 13:03:35;;;;;;;8.52;6.60;;;20.70;61.70;;;;;;5061320;28;20193;-73
2022/05/10 13:06:20;;;;;;;8.73;6.13;;;20.70;61.60;;;;;;5095090;28;20174;-73
2022/05/10 13:09:04;;;;;;;6.47;5.85;;;20.70;61.60;;;;;;5095330;28;20206;-73
2022/05/10 13:12:11;;;;;;;7.47;6.43;;;20.70;61.60;;;;;;5077100;28;20188;-73
2022/05/10 13:14:45;;;;;;;7.85;5.80;;;20.70;61.60;;;;;;5076080;28;20180;-73
2022/05/10 13:17:26;;;;;;;7.80;6.13;;;20.70;61.60;;;;;;5059633;28;20656;-73
2022/05/10 13:19:53;;;;;;;8.10;6.10;;;20.70;61.80;;;;;;5077875;28;20235;-73
2022/05/10 13:22:20;;;;;;;8.68;6.53;;;20.70;61.80;;;;;;5077304;28;20196;-73
2022/05/10 13:25:00;;;;;;;8.32;6.40;;;20.70;61.70;;;;;;5077398;28;20185;-73
2022/05/10 13:27:33;;;;;;;8.93;6.50;;;20.70;61.60;;;;;;5076583;28;20260;-73
2022/05/10 13:30:18;;;;;;;7.05;6.18;;;20.70;61.60;;;;;;5047717;28;20255;-72
2022/05/10 13:32:49;;;;;;;7.53;6.22;;;20.70;61.60;;;;;;5058021;28;20220;-74
2022/05/10 13:35:26;;;;;;;8.90;6.97;;;20.70;61.60;;;;;;5075768;28;20188;-74
2022/05/10 13:38:05;;;;;;;7.95;6.32;;;20.70;61.60;;;;;;5054246;28;20237;-74
2022/05/10 13:40:49;;;;;;;6.57;5.90;;;20.70;61.70;;;;;;5070295;28;20218;-74
2022/05/10 13:43:38;;;;;;;6.75;5.65;;;20.70;61.90;;;;;;5054277;28;20193;-74
2022/05/10 13:46:08;;;;;;;6.50;5.88;;;20.70;62.00;;;;;;5053899;28;20197;-74
2022/05/10 13:48:39;;;;;;;7.53;6.07;;;20.70;61.80;;;;;;5071074;28;20237;-74
2022/05/10 13:51:24;;;;;;;6.40;5.80;;;20.70;61.80;;;;;;5053190;28;20214;-74